Time;durP1;ratioP1;P1;durP2;ratioP2;P2;SDS_P1;SDS_P2;PMS_P1;PMS_P2;Temp;Humidity;BMP_temperature;BMP_pressure;BME280_temperature;BME280_humidity;BME280_pressure;Samples;Min_cycle;Max_cycle;Signal;HPM_P1;HPM_P2
2023/09/29 00:00:16;;;;;;;7.13;6.20;;;;;;;15.78;73.35;98192.34;5043680;28;20538;-73
2023/09/29 00:02:44;;;;;;;6.80;6.20;;;;;;;15.91;73.03;98194.06;5032086;28;20553;-73
2023/09/29 00:05:14;;;;;;;6.90;6.40;;;;;;;15.84;73.05;98206.94;5031921;28;20797;-73
2023/09/29 00:07:43;;;;;;;7.40;6.10;;;;;;;15.79;73.38;98191.28;5034190;28;20487;-73
2023/09/29 00:10:13;;;;;;;6.40;5.90;;;;;;;15.88;72.92;98183.59;5051294;28;21017;-73
2023/09/29 00:12:41;;;;;;;6.97;6.00;;;;;;;15.78;73.42;98186.03;5038557;28;20977;-73
2023/09/29 00:15:08;;;;;;;6.17;5.67;;;;;;;15.80;73.05;98186.66;5044605;28;20510;-73
2023/09/29 00:17:36;;;;;;;8.57;5.93;;;;;;;15.95;72.44;98183.47;5037504;28;20460;-73
2023/09/29 00:20:06;;;;;;;6.67;5.90;;;;;;;16.06;71.97;98190.88;5044471;28;20538;-73
2023/09/29 00:22:33;;;;;;;6.53;5.80;;;;;;;16.09;71.84;98185.78;5051430;28;20519;-73
2023/09/29 00:25:01;;;;;;;5.90;5.30;;;;;;;16.06;71.72;98186.25;5034925;28;20816;-73
2023/09/29 00:27:28;;;;;;;6.50;6.00;;;;;;;15.94;72.24;98182.63;5037551;28;20477;-73
2023/09/29 00:29:55;;;;;;;8.43;7.00;;;;;;;15.93;72.53;98183.69;5036491;28;20557;-73
2023/09/29 00:32:22;;;;;;;7.40;6.50;;;;;;;15.96;72.17;98185.13;5031321;28;20488;-74
2023/09/29 00:34:48;;;;;;;6.30;5.70;;;;;;;15.99;71.96;98185.50;5032300;28;20550;-73
2023/09/29 00:37:16;;;;;;;6.97;6.10;;;;;;;16.11;71.63;98191.00;5031735;28;20500;-73
2023/09/29 00:39:43;;;;;;;6.60;6.00;;;;;;;15.95;71.93;98195.22;5030825;28;20502;-73
2023/09/29 00:42:12;;;;;;;7.37;6.60;;;;;;;15.97;72.13;98190.38;5031115;28;21033;-73
2023/09/29 00:44:39;;;;;;;6.00;5.50;;;;;;;16.06;71.38;98180.78;5038161;28;20471;-73
2023/09/29 00:47:06;;;;;;;6.37;5.57;;;;;;;16.18;71.07;98188.19;5032227;28;20513;-73
2023/09/29 00:49:34;;;;;;;6.80;6.07;;;;;;;16.12;70.95;98184.47;5037149;28;21011;-74
2023/09/29 00:52:01;;;;;;;6.10;5.50;;;;;;;16.16;70.59;98184.84;5031123;28;20463;-73
2023/09/29 00:54:29;;;;;;;7.97;6.10;;;;;;;16.22;70.46;98192.09;5045669;28;20896;-74
2023/09/29 00:56:56;;;;;;;7.10;5.70;;;;;;;16.27;70.19;98187.59;5035636;28;20935;-73
2023/09/29 00:59:25;;;;;;;7.13;5.87;;;;;;;16.09;70.50;98191.25;5030955;28;20462;-74
2023/09/29 01:01:52;;;;;;;7.30;5.53;;;;;;;16.01;71.26;98188.84;5030536;28;20630;-74
2023/09/29 01:04:19;;;;;;;6.30;5.70;;;;;;;16.01;71.22;98183.38;5045444;28;20462;-73
2023/09/29 01:06:46;;;;;;;8.60;6.43;;;;;;;15.98;71.35;98194.75;5030911;28;20480;-73
2023/09/29 01:09:13;;;;;;;6.50;5.73;;;;;;;15.92;71.80;98178.50;5030491;28;20491;-73
2023/09/29 01:11:43;;;;;;;6.40;5.40;;;;;;;15.94;71.64;98176.34;5030548;28;20858;-73
2023/09/29 01:14:11;;;;;;;7.57;6.10;;;;;;;15.80;71.89;98181.19;5031906;28;20467;-73
2023/09/29 01:16:39;;;;;;;9.93;6.13;;;;;;;15.67;72.85;98182.19;5030745;28;20535;-73
2023/09/29 01:19:08;;;;;;;6.40;5.70;;;;;;;15.62;72.88;98178.50;5030103;28;21010;-73
2023/09/29 01:21:35;;;;;;;7.07;6.27;;;;;;;15.68;72.50;98178.41;5030682;28;20512;-73
2023/09/29 01:24:05;;;;;;;5.77;5.27;;;;;;;15.60;72.68;98181.44;5032711;28;20466;-73
2023/09/29 01:26:32;;;;;;;5.93;5.43;;;;;;;15.37;73.75;98178.59;5033977;28;20863;-73
2023/09/29 01:28:59;;;;;;;8.37;4.87;;;;;;;15.13;74.08;98158.53;5033149;28;20572;-73
2023/09/29 01:31:26;;;;;;;6.07;5.47;;;;;;;15.32;73.69;98184.72;5045669;28;20466;-73
2023/09/29 01:33:53;;;;;;;5.87;5.27;;;;;;;15.15;74.19;98171.94;5045989;28;20459;-73
2023/09/29 01:36:19;;;;;;;6.07;5.53;;;;;;;15.16;74.17;98169.00;5041766;28;21175;-73
2023/09/29 01:38:47;;;;;;;5.70;5.10;;;;;;;15.08;74.35;98177.47;5036070;28;20477;-73
2023/09/29 01:41:15;;;;;;;7.97;5.23;;;;;;;15.04;74.46;98168.09;5042980;28;20895;-73
2023/09/29 01:43:41;;;;;;;5.77;5.20;;;;;;;15.02;74.59;98181.09;5041972;28;20545;-73
2023/09/29 01:46:11;;;;;;;5.60;4.90;;;;;;;14.93;74.95;98169.69;5031197;28;20486;-73
2023/09/29 01:48:38;;;;;;;7.73;5.57;;;;;;;14.87;74.96;98156.97;5031142;28;20447;-73
2023/09/29 01:51:04;;;;;;;4.80;4.40;;;;;;;14.95;75.08;98170.28;5048701;28;20489;-73
2023/09/29 01:53:31;;;;;;;5.57;5.07;;;;;;;14.75;76.01;98166.94;5042762;28;20470;-73
2023/09/29 01:55:58;;;;;;;7.27;5.67;;;;;;;14.81;75.98;98176.09;5036164;28;21073;-73
2023/09/29 01:58:26;;;;;;;6.33;5.23;;;;;;;14.77;75.92;98171.09;5030802;28;20520;-73
2023/09/29 02:00:54;;;;;;;5.20;4.70;;;;;;;14.79;75.89;98169.00;5029421;28;20970;-73
2023/09/29 02:03:21;;;;;;;6.07;5.40;;;;;;;14.81;75.71;98165.22;5029543;28;20490;-73
2023/09/29 02:05:48;;;;;;;6.23;5.03;;;;;;;14.81;75.68;98167.94;5037430;28;20482;-73
2023/09/29 02:08:15;;;;;;;5.43;4.93;;;;;;;14.81;75.76;98167.94;5030335;28;21065;-73
2023/09/29 02:10:41;;;;;;;6.00;4.60;;;;;;;14.71;76.03;98163.00;5036993;28;21027;-73
2023/09/29 02:13:08;;;;;;;5.40;4.90;;;;;;;14.60;76.47;98167.31;5042550;28;20525;-73
2023/09/29 02:15:36;;;;;;;5.97;5.37;;;;;;;14.60;76.61;98153.69;5032748;28;20572;-73
2023/09/29 02:18:05;;;;;;;5.40;4.70;;;;;;;14.55;76.92;98161.72;5042566;28;21027;-73
2023/09/29 02:20:33;;;;;;;5.40;4.90;;;;;;;14.58;76.85;98165.88;5047844;28;20805;-73
2023/09/29 02:23:02;;;;;;;6.97;4.83;;;;;;;14.59;76.82;98159.38;5029388;28;20491;-73
2023/09/29 02:25:29;;;;;;;6.00;4.90;;;;;;;14.55;76.94;98166.31;5030181;28;20479;-73
2023/09/29 02:27:57;;;;;;;5.60;5.10;;;;;;;14.57;77.10;98165.03;5033847;28;20480;-73
2023/09/29 02:30:24;;;;;;;5.57;5.07;;;;;;;14.42;77.58;98173.53;5033781;28;20447;-73
2023/09/29 02:32:53;;;;;;;5.40;4.90;;;;;;;14.54;77.27;98165.47;5032215;28;20807;-73
2023/09/29 02:35:20;;;;;;;6.87;5.43;;;;;;;14.41;77.91;98162.88;5036956;28;21021;-73
2023/09/29 02:37:48;;;;;;;5.93;5.33;;;;;;;14.44;77.68;98159.72;5045572;28;20456;-73
2023/09/29 02:40:15;;;;;;;5.17;4.67;;;;;;;14.50;77.28;98156.09;5037759;28;20457;-73
2023/09/29 02:42:44;;;;;;;5.43;4.93;;;;;;;14.48;77.62;98160.94;5046312;28;20478;-73
2023/09/29 02:45:11;;;;;;;6.63;5.87;;;;;;;14.46;77.84;98157.59;5032919;28;20595;-73
2023/09/29 02:47:39;;;;;;;6.07;5.47;;;;;;;14.47;77.79;98159.25;5029419;28;20464;-73
2023/09/29 02:50:09;;;;;;;7.87;5.40;;;;;;;14.36;78.43;98157.22;5029835;28;20938;-73
2023/09/29 02:52:37;;;;;;;6.90;5.33;;;;;;;14.35;78.28;98169.19;5030148;28;20458;-73
2023/09/29 02:55:05;;;;;;;6.97;6.00;;;;;;;14.31;78.60;98170.66;5033820;28;20503;-72
2023/09/29 02:57:33;;;;;;;7.00;5.60;;;;;;;14.22;78.94;98161.13;5031271;28;20554;-73
2023/09/29 03:00:00;;;;;;;5.57;5.03;;;;;;;14.25;79.13;98164.25;5030182;28;20550;-73
2023/09/29 03:02:27;;;;;;;6.50;5.07;;;;;;;14.22;79.46;98161.13;5035213;28;20486;-73
2023/09/29 03:04:54;;;;;;;6.10;5.50;;;;;;;14.25;79.27;98160.69;5029433;28;20466;-73
2023/09/29 03:07:22;;;;;;;6.07;5.57;;;;;;;14.17;79.29;98152.81;5029913;28;20545;-73
2023/09/29 03:09:48;;;;;;;5.73;5.23;;;;;;;14.15;79.23;98160.34;5035880;28;20465;-73
2023/09/29 03:12:17;;;;;;;5.63;5.13;;;;;;;14.11;79.02;98149.06;5029653;28;20493;-73
2023/09/29 03:14:45;;;;;;;4.73;4.20;;;;;;;14.19;78.72;98156.97;5039627;28;20895;-73
2023/09/29 03:17:11;;;;;;;5.17;4.70;;;;;;;14.28;78.09;98157.53;5042205;28;20521;-73
2023/09/29 03:19:38;;;;;;;5.50;4.80;;;;;;;14.22;78.22;98152.97;5039999;28;20503;-73
2023/09/29 03:22:05;;;;;;;5.50;4.17;;;;;;;14.21;78.00;98154.88;5032506;28;20524;-73
2023/09/29 03:24:37;;;;;;;5.40;4.40;;;;;;;14.29;77.66;98159.19;5039556;28;20519;-73
2023/09/29 03:27:04;;;;;;;5.57;4.83;;;;;;;14.30;77.44;98158.13;5028884;28;20996;-73
2023/09/29 03:29:31;;;;;;;5.30;4.80;;;;;;;14.33;77.58;98152.22;5029085;28;21017;-73
2023/09/29 03:31:59;;;;;;;4.67;4.20;;;;;;;14.42;77.20;98164.53;5036725;28;20486;-73
2023/09/29 03:34:26;;;;;;;4.37;3.93;;;;;;;14.43;76.70;98160.75;5041538;28;20461;-73
2023/09/29 03:36:53;;;;;;;5.60;4.40;;;;;;;14.52;76.42;98162.16;5038375;28;20778;-73
2023/09/29 03:39:19;;;;;;;4.80;4.30;;;;;;;14.52;76.31;98161.31;5030205;28;20468;-73
2023/09/29 03:41:48;;;;;;;5.23;4.73;;;;;;;14.48;76.35;98155.47;5030506;28;20553;-73
2023/09/29 03:44:15;;;;;;;4.97;4.47;;;;;;;14.38;77.09;98155.13;5030330;28;20896;-73
2023/09/29 03:46:42;;;;;;;5.00;4.50;;;;;;;14.33;76.95;98163.13;5039198;28;20984;-73
2023/09/29 03:49:10;;;;;;;5.20;4.53;;;;;;;14.33;77.42;98163.13;5047388;28;20457;-73
2023/09/29 03:51:38;;;;;;;7.50;4.50;;;;;;;14.40;77.13;98166.63;5043760;28;20469;-73
2023/09/29 03:54:06;;;;;;;5.30;4.50;;;;;;;14.42;77.00;98164.53;5041801;28;20444;-72
2023/09/29 03:56:34;;;;;;;5.20;4.33;;;;;;;14.53;76.60;98163.81;5037527;28;20472;-73
2023/09/29 03:59:03;;;;;;;6.17;4.87;;;;;;;14.47;76.57;98172.03;5036882;28;20470;-73
2023/09/29 04:01:29;;;;;;;5.13;4.60;;;;;;;14.40;77.33;98177.50;5037690;28;20455;-73
2023/09/29 04:03:56;;;;;;;4.67;4.27;;;;;;;14.38;77.15;98177.75;5041184;28;20524;-73
2023/09/29 04:06:24;;;;;;;6.30;5.20;;;;;;;14.41;77.10;98181.94;5038915;28;20555;-73
2023/09/29 04:08:51;;;;;;;5.33;4.50;;;;;;;14.49;76.93;98178.94;5033883;28;20453;-73
2023/09/29 04:11:19;;;;;;;5.47;4.10;;;;;;;14.52;76.71;98172.22;5040212;28;20491;-73
2023/09/29 04:13:46;;;;;;;4.90;4.40;;;;;;;14.52;76.86;98164.88;5035454;28;20616;-73
2023/09/29 04:16:15;;;;;;;5.40;4.90;;;;;;;14.39;77.36;98173.13;5036819;28;20937;-74
2023/09/29 04:18:41;;;;;;;6.83;5.17;;;;;;;14.43;77.39;98163.47;5042842;28;20971;-74
2023/09/29 04:21:11;;;;;;;5.30;4.80;;;;;;;14.57;76.98;98170.50;5032904;28;21047;-73
2023/09/29 04:23:37;;;;;;;5.50;4.90;;;;;;;14.63;76.56;98179.63;5041040;28;20516;-74
2023/09/29 04:26:04;;;;;;;5.00;4.50;;;;;;;14.65;76.44;98186.50;5040439;28;20884;-74
2023/09/29 04:28:31;;;;;;;5.50;5.00;;;;;;;14.54;76.80;98187.28;5038421;28;20561;-81
2023/09/29 04:30:58;;;;;;;6.17;5.07;;;;;;;14.68;76.49;98188.78;5034520;28;20510;-77
2023/09/29 04:33:26;;;;;;;5.20;4.57;;;;;;;14.73;76.09;98197.13;5044963;28;20883;-77
2023/09/29 04:35:53;;;;;;;5.13;4.73;;;;;;;14.93;75.16;98207.00;5039879;28;20483;-76
2023/09/29 04:38:20;;;;;;;5.87;4.93;;;;;;;14.83;75.29;98195.78;5048338;28;20465;-78
2023/09/29 04:40:47;;;;;;;5.07;4.57;;;;;;;14.97;74.79;98198.13;5048036;28;20836;-77
2023/09/29 04:43:14;;;;;;;6.10;4.50;;;;;;;14.88;75.00;98195.97;5046793;28;20569;-77
2023/09/29 04:45:41;;;;;;;6.70;5.20;;;;;;;14.73;75.73;98197.13;5035041;28;20497;-86
2023/09/29 04:48:08;;;;;;;5.80;5.20;;;;;;;14.53;76.88;98196.50;5041699;28;20481;-73
2023/09/29 04:50:36;;;;;;;5.50;4.77;;;;;;;14.45;77.72;98185.88;5034760;28;20477;-75
2023/09/29 04:53:03;;;;;;;6.30;5.10;;;;;;;14.36;78.01;98179.00;5034147;28;20485;-74
2023/09/29 04:55:30;;;;;;;5.90;5.37;;;;;;;14.43;78.05;98185.28;5043809;28;20536;-73
2023/09/29 04:57:57;;;;;;;5.73;4.63;;;;;;;14.49;78.11;98189.00;5034574;28;20494;-74
2023/09/29 05:00:24;;;;;;;5.73;5.27;;;;;;;14.52;77.65;98197.56;5046500;28;20492;-74
2023/09/29 05:02:51;;;;;;;5.60;4.87;;;;;;;14.36;78.64;98184.47;5046282;28;20475;-74
2023/09/29 05:05:18;;;;;;;7.80;5.17;;;;;;;14.29;79.12;98183.72;5043283;28;20504;-73
2023/09/29 05:07:46;;;;;;;5.20;4.70;;;;;;;14.16;79.60;98184.63;5035324;28;20981;-74
2023/09/29 05:10:14;;;;;;;5.83;4.90;;;;;;;14.35;78.80;98182.78;5033967;28;20554;-74
2023/09/29 05:12:43;;;;;;;5.07;4.63;;;;;;;14.25;79.14;98169.69;5035263;28;20490;-74
2023/09/29 05:15:11;;;;;;;5.13;4.63;;;;;;;14.51;78.52;98187.72;5036692;28;20493;-74
2023/09/29 05:17:37;;;;;;;5.37;4.87;;;;;;;14.42;78.79;98181.72;5035580;28;20456;-74
2023/09/29 05:20:06;;;;;;;6.37;5.13;;;;;;;14.37;78.83;98191.56;5035099;28;20501;-74
2023/09/29 05:22:33;;;;;;;6.97;4.80;;;;;;;14.33;78.91;98184.91;5031979;28;20470;-74
2023/09/29 05:25:01;;;;;;;5.93;5.33;;;;;;;14.30;79.19;98193.50;5040625;28;20455;-74
2023/09/29 05:27:29;;;;;;;6.90;4.97;;;;;;;14.30;79.37;98197.06;5031387;28;20455;-74
2023/09/29 05:29:56;;;;;;;6.13;5.23;;;;;;;14.38;79.18;98198.69;5040043;28;20450;-74
2023/09/29 05:32:23;;;;;;;5.80;5.20;;;;;;;14.62;78.32;98206.03;5032091;28;20453;-74
2023/09/29 05:34:50;;;;;;;7.50;5.97;;;;;;;14.53;78.46;98209.28;5035542;28;20465;-74
2023/09/29 05:37:17;;;;;;;6.10;5.50;;;;;;;14.77;77.58;98209.25;5042402;28;21430;-74
2023/09/29 05:39:43;;;;;;;9.20;5.63;;;;;;;14.49;78.34;98205.34;5032948;28;20462;-74
2023/09/29 05:42:12;;;;;;;6.70;6.00;;;;;;;14.50;78.75;98201.56;5031592;28;20609;-74
2023/09/29 05:44:39;;;;;;;7.23;6.43;;;;;;;14.71;77.71;98209.31;5031296;28;20497;-75
2023/09/29 05:47:05;;;;;;;7.03;6.33;;;;;;;14.79;77.21;98209.03;5031792;28;20459;-75
2023/09/29 05:49:32;;;;;;;7.13;5.60;;;;;;;14.91;76.71;98217.31;5032549;28;20471;-74
2023/09/29 05:51:59;;;;;;;6.27;5.50;;;;;;;15.39;74.32;98210.03;5041456;28;20451;-74
2023/09/29 05:54:26;;;;;;;5.93;5.33;;;;;;;15.60;73.07;98221.53;5031561;28;20458;-74
2023/09/29 05:56:53;;;;;;;8.50;5.73;;;;;;;15.56;73.14;98223.06;5031629;28;20479;-74
2023/09/29 05:59:21;;;;;;;8.13;5.30;;;;;;;15.40;73.71;98222.59;5033386;28;22369;-74
2023/09/29 06:01:48;;;;;;;7.60;5.50;;;;;;;15.53;73.68;98223.50;5045372;28;20511;-74
2023/09/29 06:04:15;;;;;;;8.30;5.60;;;;;;;15.76;71.97;98223.66;5033059;28;21017;-74
2023/09/29 06:06:43;;;;;;;5.90;5.23;;;;;;;15.79;71.68;98220.47;5032184;28;20526;-75
2023/09/29 06:09:10;;;;;;;8.97;5.50;;;;;;;15.57;72.38;98219.28;5036739;28;20462;-74
2023/09/29 06:11:36;;;;;;;6.20;5.10;;;;;;;15.71;72.03;98223.50;5037721;28;20454;-75
2023/09/29 06:14:04;;;;;;;5.80;5.30;;;;;;;15.65;72.02;98216.22;5029478;28;20455;-74
2023/09/29 06:16:32;;;;;;;5.77;5.20;;;;;;;15.77;72.15;98225.31;5032599;28;20496;-74
2023/09/29 06:18:59;;;;;;;7.23;5.57;;;;;;;15.63;72.58;98234.72;5035019;28;20486;-74
2023/09/29 06:21:28;;;;;;;5.67;5.17;;;;;;;15.82;72.32;98225.47;5046551;28;20462;-75
2023/09/29 06:23:54;;;;;;;7.93;5.50;;;;;;;15.76;72.42;98235.41;5030167;28;20488;-74
2023/09/29 06:26:21;;;;;;;6.60;5.50;;;;;;;15.93;71.57;98240.19;5045069;28;20478;-74
2023/09/29 06:28:48;;;;;;;8.10;5.67;;;;;;;16.11;70.91;98237.44;5046435;28;20475;-74
2023/09/29 06:31:15;;;;;;;8.40;6.20;;;;;;;16.14;70.60;98236.97;5033310;28;20468;-74
2023/09/29 06:33:43;;;;;;;11.10;5.70;;;;;;;15.98;71.34;98238.44;5042958;28;20471;-75
2023/09/29 06:36:10;;;;;;;8.00;5.83;;;;;;;16.05;71.18;98244.66;5029651;28;20859;-75
2023/09/29 06:38:36;;;;;;;6.57;5.70;;;;;;;16.00;71.76;98252.69;5043005;28;20979;-75
2023/09/29 06:41:03;;;;;;;6.97;5.50;;;;;;;16.03;71.73;98238.59;5034058;28;20529;-75
2023/09/29 06:43:30;;;;;;;8.27;5.93;;;;;;;15.94;72.17;98248.16;5038844;28;20486;-75
2023/09/29 06:45:58;;;;;;;7.63;6.10;;;;;;;15.98;71.76;98254.81;5039343;28;20479;-75
2023/09/29 06:48:25;;;;;;;7.50;6.40;;;;;;;16.12;71.45;98250.84;5039546;28;20497;-75
2023/09/29 06:50:53;;;;;;;8.27;6.37;;;;;;;16.24;71.14;98253.63;5038452;28;20460;-75
2023/09/29 06:53:20;;;;;;;5.80;5.20;;;;;;;16.47;70.83;98258.31;5030424;28;20514;-74
2023/09/29 06:55:47;;;;;;;7.37;6.67;;;;;;;16.63;70.25;98257.59;5044736;28;20474;-75
2023/09/29 06:58:13;;;;;;;6.90;6.20;;;;;;;16.68;70.37;98254.19;5045563;28;20449;-74
2023/09/29 07:00:40;;;;;;;6.20;5.60;;;;;;;16.83;69.58;98253.75;5035263;28;20543;-75
2023/09/29 07:03:12;;;;;;;9.93;5.93;;;;;;;16.87;69.28;98254.94;5030034;28;20539;-75
2023/09/29 07:05:39;;;;;;;10.97;6.03;;;;;;;16.84;68.57;98258.16;5031537;28;20479;-75
2023/09/29 07:08:07;;;;;;;6.80;6.10;;;;;;;16.91;68.45;98248.75;5045121;28;20455;-74
2023/09/29 07:10:34;;;;;;;6.60;6.00;;;;;;;16.82;67.85;98211.09;5032591;28;21030;-75
2023/09/29 07:13:01;;;;;;;6.10;5.50;;;;;;;17.25;67.56;98238.84;5042469;28;20486;-74
2023/09/29 07:15:27;;;;;;;7.70;6.90;;;;;;;17.25;67.00;98235.28;5032015;28;21025;-75
2023/09/29 07:17:54;;;;;;;6.80;5.93;;;;;;;17.34;66.77;98234.69;5041302;28;20458;-74
2023/09/29 07:20:21;;;;;;;7.30;6.10;;;;;;;17.53;65.03;98232.63;5032035;28;20448;-75
2023/09/29 07:22:51;;;;;;;7.10;5.10;;;;;;;17.63;65.08;98245.69;5036069;28;20909;-74
2023/09/29 07:25:19;;;;;;;5.77;5.13;;;;;;;17.62;64.53;98244.84;5037857;28;20497;-74
2023/09/29 07:27:46;;;;;;;7.57;5.60;;;;;;;17.72;64.27;98238.78;5042259;28;21004;-75
2023/09/29 07:30:13;;;;;;;6.37;4.73;;;;;;;17.84;64.17;98246.97;5032830;28;20967;-75
2023/09/29 07:32:40;;;;;;;6.10;5.50;;;;;;;17.76;64.07;98246.28;5032335;28;20456;-74
2023/09/29 07:35:08;;;;;;;7.07;5.50;;;;;;;17.60;64.42;98247.00;5043843;28;20468;-75
2023/09/29 07:37:35;;;;;;;6.33;5.53;;;;;;;17.60;65.79;98240.69;5035336;28;20531;-75
2023/09/29 07:40:01;;;;;;;9.53;5.13;;;;;;;17.75;64.78;98239.13;5051822;28;20439;-75
2023/09/29 07:42:29;;;;;;;6.73;5.07;;;;;;;17.63;64.59;98242.94;5032593;28;20987;-74
2023/09/29 07:44:57;;;;;;;5.90;4.90;;;;;;;17.74;64.75;98250.31;5032162;28;20867;-74
2023/09/29 07:47:24;;;;;;;6.67;4.93;;;;;;;17.87;64.35;98247.28;5031766;28;20495;-75
2023/09/29 07:49:51;;;;;;;5.47;4.90;;;;;;;18.04;63.77;98248.19;5031947;28;20548;-75
2023/09/29 07:52:18;;;;;;;5.53;4.80;;;;;;;18.26;63.22;98252.97;5043724;28;20460;-75
2023/09/29 07:54:45;;;;;;;5.17;4.70;;;;;;;18.27;63.39;98258.19;5042518;28;20817;-75
2023/09/29 07:57:11;;;;;;;7.03;4.97;;;;;;;18.76;61.38;98264.84;5045260;28;21276;-75
2023/09/29 07:59:39;;;;;;;6.60;5.00;;;;;;;19.05;61.03;98251.03;5051789;28;20524;-74
2023/09/29 08:02:06;;;;;;;5.60;5.10;;;;;;;19.11;60.04;98253.59;5039592;28;20451;-74
2023/09/29 08:04:33;;;;;;;6.50;5.20;;;;;;;19.15;60.26;98253.94;5051443;28;20498;-75
2023/09/29 08:07:00;;;;;;;7.60;5.30;;;;;;;19.37;59.50;98256.72;5047074;28;20478;-74
2023/09/29 08:09:27;;;;;;;7.50;4.90;;;;;;;20.37;57.16;98260.97;5032312;28;20487;-76
2023/09/29 08:11:54;;;;;;;11.50;5.20;;;;;;;21.51;53.84;98254.16;5034504;28;20456;-75
2023/09/29 08:14:21;;;;;;;6.70;5.73;;;;;;;21.35;52.51;98262.34;5051495;28;20838;-75
2023/09/29 08:16:49;;;;;;;6.37;5.10;;;;;;;21.13;54.17;98256.09;5031848;28;20475;-75
2023/09/29 08:19:16;;;;;;;6.60;5.10;;;;;;;21.37;53.57;98262.09;5032137;28;20460;-75
2023/09/29 08:21:42;;;;;;;6.10;5.33;;;;;;;22.15;52.20;98254.72;5031817;28;20579;-75
2023/09/29 08:24:09;;;;;;;5.33;4.83;;;;;;;23.30;48.84;98255.09;5042532;28;20486;-75
2023/09/29 08:26:37;;;;;;;4.47;4.07;;;;;;;23.29;47.22;98258.97;5047442;28;20554;-75
2023/09/29 08:29:04;;;;;;;5.73;4.70;;;;;;;22.34;49.45;98255.06;5031229;28;20959;-75
2023/09/29 08:31:31;;;;;;;7.10;5.03;;;;;;;21.77;52.17;98256.78;5030398;28;20440;-75
2023/09/29 08:33:59;;;;;;;6.30;4.90;;;;;;;21.39;52.66;98246.97;5031813;28;20538;-75
2023/09/29 08:36:26;;;;;;;6.40;4.77;;;;;;;21.02;53.97;98257.97;5031215;28;20460;-75
2023/09/29 08:38:53;;;;;;;5.93;5.43;;;;;;;20.84;55.11;98249.28;5030979;28;20582;-75
2023/09/29 08:41:25;;;;;;;5.80;5.13;;;;;;;21.07;54.17;98255.28;5033365;28;20452;-75
2023/09/29 08:43:53;;;;;;;7.00;4.50;;;;;;;21.04;54.12;98244.78;5050535;28;20498;-75
2023/09/29 08:46:20;;;;;;;6.87;5.10;;;;;;;20.85;55.25;98251.78;5050623;28;20525;-75
2023/09/29 08:48:48;;;;;;;4.83;4.33;;;;;;;21.12;54.58;98251.69;5033982;28;20832;-75
2023/09/29 08:51:17;;;;;;;7.53;5.40;;;;;;;21.98;52.08;98249.44;5050235;28;20462;-76
2023/09/29 08:53:43;;;;;;;5.53;4.93;;;;;;;22.69;50.19;98249.59;5050817;28;20966;-75
2023/09/29 08:56:14;;;;;;;5.07;4.60;;;;;;;23.07;49.10;98259.25;5048260;28;20470;-75
2023/09/29 08:58:41;;;;;;;4.37;3.90;;;;;;;23.92;46.82;98250.22;5034304;28;20590;-76
2023/09/29 09:01:08;;;;;;;4.87;4.00;;;;;;;24.42;45.61;98251.91;5031453;28;20440;-75
2023/09/29 09:03:35;;;;;;;5.30;4.80;;;;;;;25.06;44.58;98239.81;5031028;28;20537;-76
2023/09/29 09:06:03;;;;;;;11.40;5.03;;;;;;;25.72;42.12;98241.91;5030915;28;20491;-76
2023/09/29 09:08:31;;;;;;;5.10;4.60;;;;;;;25.90;42.28;98230.03;5030600;28;20453;-76
2023/09/29 09:10:59;;;;;;;6.17;4.57;;;;;;;26.44;41.04;98228.75;5033964;28;20510;-76
2023/09/29 09:13:26;;;;;;;4.73;4.33;;;;;;;26.96;40.71;98240.75;5030547;28;20488;-76
2023/09/29 09:15:57;;;;;;;4.50;4.10;;;;;;;27.17;40.00;98235.66;5038412;28;20504;-76
2023/09/29 09:18:25;;;;;;;6.00;4.07;;;;;;;27.02;40.24;98233.94;5041363;28;20510;-76
2023/09/29 09:20:53;;;;;;;5.10;4.20;;;;;;;27.39;39.08;98233.81;5033134;28;21001;-74
2023/09/29 09:23:19;;;;;;;4.73;4.17;;;;;;;27.52;38.70;98231.38;5026786;28;20459;-76
2023/09/29 09:25:48;;;;;;;6.00;4.20;;;;;;;27.16;39.17;98234.81;5034357;28;20494;-75
2023/09/29 09:28:16;;;;;;;4.40;4.00;;;;;;;27.15;40.24;98233.19;5040585;28;20483;-76
2023/09/29 09:30:44;;;;;;;5.27;4.37;;;;;;;27.31;39.97;98226.19;5029651;28;20453;-76
2023/09/29 09:33:17;;;;;;;4.83;4.33;;;;;;;26.44;42.02;98228.75;5036327;28;20460;-76
2023/09/29 09:35:44;;;;;;;5.03;4.60;;;;;;;26.65;41.15;98240.38;5032057;28;21000;-76
2023/09/29 09:38:11;;;;;;;4.33;3.63;;;;;;;26.27;42.24;98229.25;5038893;28;20463;-76
2023/09/29 09:40:38;;;;;;;4.67;4.23;;;;;;;26.08;42.78;98236.72;5037169;28;20448;-76
2023/09/29 09:43:09;;;;;;;6.10;3.87;;;;;;;25.97;43.48;98240.78;5032604;28;20513;-75
2023/09/29 09:45:39;;;;;;;5.53;5.03;;;;;;;25.53;43.05;98236.28;5030630;28;20496;-75
2023/09/29 09:48:07;;;;;;;4.47;3.83;;;;;;;25.37;44.74;98235.59;5033981;28;20451;-75
2023/09/29 09:50:36;;;;;;;4.40;4.00;;;;;;;25.21;44.48;98238.84;5038793;28;20943;-74
2023/09/29 09:53:06;;;;;;;6.03;4.57;;;;;;;25.42;44.90;98238.31;5032310;28;20521;-75
2023/09/29 09:55:39;;;;;;;4.67;4.27;;;;;;;25.71;44.29;98240.25;5028574;28;20494;-75
2023/09/29 09:58:12;;;;;;;4.77;4.20;;;;;;;26.10;43.84;98240.88;5032796;28;21020;-74
2023/09/29 10:00:41;;;;;;;6.03;4.33;;;;;;;26.81;42.04;98230.66;5032418;28;20456;-75
2023/09/29 10:03:12;;;;;;;6.90;4.13;;;;;;;27.65;39.75;98228.63;5033105;28;20463;-76
2023/09/29 10:05:41;;;;;;;5.10;4.50;;;;;;;28.13;38.47;98230.97;5029003;28;20492;-74
2023/09/29 10:08:10;;;;;;;5.23;4.40;;;;;;;28.83;37.07;98230.50;5031070;28;20477;-75
2023/09/29 10:10:41;;;;;;;7.07;4.40;;;;;;;29.51;35.97;98232.09;5033197;28;20960;-75
2023/09/29 10:13:12;;;;;;;6.93;4.80;;;;;;;29.87;35.83;98229.13;5029408;28;20456;-75
2023/09/29 10:15:39;;;;;;;4.37;3.97;;;;;;;30.11;34.84;98216.72;5037523;28;20842;-75
2023/09/29 10:18:17;;;;;;;5.77;4.27;;;;;;;30.63;33.37;98226.00;5029113;28;20465;-75
2023/09/29 10:20:46;;;;;;;4.80;4.30;;;;;;;30.90;32.52;98233.22;5041438;28;20471;-75
2023/09/29 10:23:14;;;;;;;3.97;3.57;;;;;;;31.01;32.13;98223.34;5042711;28;20475;-76
2023/09/29 10:25:44;;;;;;;4.50;4.03;;;;;;;30.86;33.55;98227.50;5031524;28;20492;-76
2023/09/29 10:28:17;;;;;;;4.33;3.90;;;;;;;31.23;32.45;98225.94;5037256;28;20455;-75
2023/09/29 10:30:44;;;;;;;3.97;3.63;;;;;;;31.22;32.26;98221.50;5032543;28;20471;-75
2023/09/29 10:33:11;;;;;;;4.50;2.87;;;;;;;30.90;30.90;98227.63;5030296;28;20498;-75
2023/09/29 10:35:47;;;;;;;5.00;3.30;;;;;;;29.94;31.90;98226.66;5039289;28;20476;-75
2023/09/29 10:38:24;;;;;;;3.30;3.00;;;;;;;29.70;32.51;98221.50;5047922;28;20468;-76
2023/09/29 10:40:52;;;;;;;3.27;2.97;;;;;;;30.18;32.06;98214.28;5019817;28;20474;-76
2023/09/29 10:43:23;;;;;;;3.10;2.87;;;;;;;30.50;32.26;98219.41;5030682;28;20490;-76
2023/09/29 10:45:50;;;;;;;2.93;2.73;;;;;;;30.60;31.04;98212.69;5031987;28;20574;-76
2023/09/29 10:48:19;;;;;;;3.67;3.03;;;;;;;31.33;31.02;98208.81;5027994;28;20452;-76
2023/09/29 10:50:49;;;;;;;3.30;2.80;;;;;;;30.58;31.66;98207.41;5035939;28;20459;-75
2023/09/29 10:53:17;;;;;;;2.70;2.50;;;;;;;31.17;31.12;98204.09;5028262;28;21365;-76
2023/09/29 10:55:44;;;;;;;2.80;2.60;;;;;;;30.89;31.37;98209.19;5030963;28;20483;-76
2023/09/29 10:58:12;;;;;;;3.00;2.80;;;;;;;30.68;31.76;98200.69;5033841;28;20619;-76
2023/09/29 11:00:46;;;;;;;3.17;2.90;;;;;;;30.60;31.68;98202.31;5036403;28;20455;-76
2023/09/29 11:03:14;;;;;;;3.10;2.90;;;;;;;31.35;30.63;98194.50;5035225;28;20470;-76
2023/09/29 11:05:49;;;;;;;3.10;2.90;;;;;;;31.90;30.44;98194.44;5032148;28;20492;-76
2023/09/29 11:08:19;;;;;;;3.63;3.30;;;;;;;31.53;30.64;98192.44;5042878;28;20525;-76
2023/09/29 11:10:56;;;;;;;3.10;2.80;;;;;;;31.66;30.23;98186.63;5031256;28;20455;-76
2023/09/29 11:13:23;;;;;;;4.17;3.20;;;;;;;31.01;31.19;98195.38;5039512;28;20543;-76
2023/09/29 11:15:52;;;;;;;3.40;3.10;;;;;;;30.57;32.21;98179.81;5036424;28;20476;-76
2023/09/29 11:18:33;;;;;;;3.30;3.00;;;;;;;30.62;32.49;98174.88;5036747;28;20455;-76
2023/09/29 11:21:05;;;;;;;4.03;3.30;;;;;;;30.14;32.99;98176.97;5035770;28;20462;-75
2023/09/29 11:23:39;;;;;;;3.90;3.03;;;;;;;30.31;32.97;98172.22;5041220;28;20444;-76
2023/09/29 11:26:09;;;;;;;3.20;2.53;;;;;;;30.71;32.72;98158.09;5039964;28;20936;-76
2023/09/29 11:28:40;;;;;;;4.83;3.00;;;;;;;30.95;32.46;98163.16;5036594;28;20867;-76
2023/09/29 11:31:11;;;;;;;4.07;3.03;;;;;;;31.23;31.79;98153.22;5036265;28;20466;-75
2023/09/29 11:33:39;;;;;;;3.23;3.03;;;;;;;31.13;31.99;98152.78;5032882;28;20456;-76
2023/09/29 11:36:13;;;;;;;3.40;3.07;;;;;;;31.18;31.74;98150.63;5033295;28;20479;-76